Terminal Aerodrome Forecast
Issued by NWS

Home | Current Version | Previous Version | Text Only | Print | Product List | Glossary On
Versions: 1 2 3 4 5 6 7 8 9 10 11 12 13 14 15 16 17
000
FTUS46 KOTX 171137
TAFSFF
TAF
KSFF 171137Z 1712/1812 10007KT P6SM FEW200
     FM171400 18010KT P6SM SCT200 WS020/24030KT
     FM171600 21014G21KT P6SM SCT200
     FM172000 22022G32KT P6SM SCT150
     FM172300 22019G27KT 6SM HZ SCT100
     FM180300 25008KT P6SM BKN250
     FM180600 VRB05KT P6SM BKN250=

USA.gov is the U.S. government's official web portal to all federal, state and local government web resources and services.